Time;durP1;ratioP1;P1;durP2;ratioP2;P2;SDS_P1;SDS_P2;PMS_P1;PMS_P2;Temp;Humidity;BMP_temperature;BMP_pressure;BME280_temperature;BME280_humidity;BME280_pressure;Samples;Min_cycle;Max_cycle;Signal;HPM_P1;HPM_P2
2022/01/17 00:00:44;;;;;;;39.45;11.90;;;;;;;6.35;100.00;102564.50;5094236;28;20052;-54
2022/01/17 00:03:13;;;;;;;49.80;11.75;;;;;;;6.41;100.00;102568.88;5094503;28;20073;-54
2022/01/17 00:05:41;;;;;;;51.67;16.20;;;;;;;6.46;100.00;102567.03;5094334;28;20063;-54
2022/01/17 00:08:09;;;;;;;27.70;12.27;;;;;;;6.44;100.00;102574.97;5094808;28;20058;-54
2022/01/17 00:10:38;;;;;;;95.50;12.52;;;;;;;6.43;100.00;102578.47;5094421;28;20407;-54
2022/01/17 00:13:10;;;;;;;43.80;11.80;;;;;;;6.47;100.00;102569.66;5094722;28;20063;-54
2022/01/17 00:15:47;;;;;;;27.75;10.93;;;;;;;6.48;100.00;102575.78;5094691;28;20056;-54
2022/01/17 00:18:41;;;;;;;45.92;11.32;;;;;;;6.52;100.00;102577.50;5094344;28;20128;-54
2022/01/17 00:21:09;;;;;;;41.40;10.15;;;;;;;6.49;100.00;102580.19;5095223;28;20060;-54
2022/01/17 00:23:38;;;;;;;72.65;10.48;;;;;;;6.48;100.00;102581.06;5094348;28;20056;-54
2022/01/17 00:26:06;;;;;;;17.70;8.70;;;;;;;6.51;100.00;102581.03;5093774;28;20063;-54
2022/01/17 00:28:36;;;;;;;87.95;11.52;;;;;;;6.51;100.00;102581.03;5093936;28;20056;-54
2022/01/17 00:31:05;;;;;;;54.15;10.18;;;;;;;6.47;100.00;102584.59;5094284;28;20400;-54
2022/01/17 00:33:34;;;;;;;72.78;10.27;;;;;;;6.42;100.00;102587.31;5094243;28;20091;-54
2022/01/17 00:36:02;;;;;;;50.47;9.57;;;;;;;6.36;100.00;102586.50;5094910;28;20060;-54
2022/01/17 00:38:30;;;;;;;37.13;10.35;;;;;;;6.33;100.00;102588.25;5093935;28;20060;-54
2022/01/17 00:40:58;;;;;;;44.70;10.55;;;;;;;6.33;100.00;102597.94;5093905;28;20056;-54
2022/01/17 00:43:27;;;;;;;44.15;10.77;;;;;;;6.30;100.00;102590.06;5094266;28;20090;-54
2022/01/17 00:45:57;;;;;;;51.83;9.90;;;;;;;6.28;100.00;102590.06;5094098;28;20518;-54
2022/01/17 00:48:25;;;;;;;52.72;10.55;;;;;;;6.27;100.00;102583.06;5093514;28;20048;-54
2022/01/17 00:50:53;;;;;;;19.83;10.52;;;;;;;6.30;100.00;102583.03;5094058;28;20407;-54
2022/01/17 00:53:22;;;;;;;17.73;10.05;;;;;;;6.30;100.00;102582.16;5093774;28;20059;-54
2022/01/17 00:55:50;;;;;;;16.50;9.25;;;;;;;6.33;100.00;102587.38;5093470;28;20051;-54
2022/01/17 00:58:18;;;;;;;20.98;10.32;;;;;;;6.37;100.00;102588.22;5094034;28;20059;-54
2022/01/17 01:00:46;;;;;;;23.23;10.27;;;;;;;6.38;100.00;102589.97;5094459;28;20526;-54
2022/01/17 01:03:16;;;;;;;17.67;10.95;;;;;;;6.36;100.00;102589.13;5098051;28;20556;-54
2022/01/17 01:05:45;;;;;;;29.83;10.93;;;;;;;6.30;100.00;102593.59;5098218;28;20067;-54
2022/01/17 01:08:13;;;;;;;16.88;10.70;;;;;;;6.32;100.00;102596.19;5097698;28;20078;-55
2022/01/17 01:10:41;;;;;;;68.47;12.98;;;;;;;6.43;100.00;102593.44;5097649;28;20056;-54
2022/01/17 01:13:09;;;;;;;55.28;12.90;;;;;;;6.53;100.00;102592.44;5098063;28;20070;-54
2022/01/17 01:16:08;;;;;;;62.78;13.57;;;;;;;6.49;100.00;102590.75;5096934;28;20060;-54
2022/01/17 01:18:55;;;;;;;53.25;12.00;;;;;;;6.58;100.00;102597.66;5097959;28;20056;-55
2022/01/17 01:21:45;;;;;;;61.22;12.38;;;;;;;6.61;100.00;102593.22;5096904;28;20066;-54
2022/01/17 01:29:50;;;;;;;48.80;11.93;;;;;;;6.75;100.00;102587.75;5096750;28;20056;-55
2022/01/17 01:32:24;;;;;;;20.77;11.38;;;;;;;6.73;100.00;102591.31;5098190;28;20056;-55
2022/01/17 01:34:57;;;;;;;20.38;10.90;;;;;;;6.74;100.00;102593.06;5096959;28;20056;-55
2022/01/17 01:37:25;;;;;;;16.83;10.65;;;;;;;6.81;100.00;102584.19;5096785;28;20531;-55
2022/01/17 01:39:54;;;;;;;30.08;11.15;;;;;;;6.82;100.00;102585.91;5096798;28;20056;-55
2022/01/17 01:42:24;;;;;;;21.70;11.00;;;;;;;6.83;100.00;102587.66;5096721;28;20060;-55
2022/01/17 01:44:53;;;;;;;20.92;10.40;;;;;;;6.83;100.00;102587.66;5097418;28;20058;-55
2022/01/17 01:47:23;;;;;;;32.55;11.48;;;;;;;6.90;100.00;102586.69;5096970;28;20056;-55
2022/01/17 01:49:51;;;;;;;22.90;11.15;;;;;;;6.90;100.00;102584.06;5097106;28;20058;-55
2022/01/17 01:52:21;;;;;;;23.10;10.63;;;;;;;6.91;100.00;102587.56;5096886;28;20051;-55
2022/01/17 01:54:51;;;;;;;35.08;10.30;;;;;;;6.80;100.00;102572.75;5096625;28;20052;-55
2022/01/17 01:57:19;;;;;;;21.23;10.93;;;;;;;6.86;100.00;102591.13;5096699;28;20063;-55
2022/01/17 01:59:47;;;;;;;51.65;12.60;;;;;;;6.83;100.00;102587.66;5096748;28;20056;-55
2022/01/17 02:02:16;;;;;;;33.60;10.55;;;;;;;6.78;100.00;102595.63;5096375;28;20062;-55
2022/01/17 02:04:45;;;;;;;21.85;9.07;;;;;;;6.77;100.00;102587.75;5097014;28;20059;-55
2022/01/17 02:07:13;;;;;;;19.08;9.90;;;;;;;6.84;100.00;102597.31;5096539;28;20066;-55
2022/01/17 02:09:43;;;;;;;14.80;8.82;;;;;;;6.83;100.00;102600.88;5096239;28;20056;-55
2022/01/17 02:12:13;;;;;;;19.98;9.35;;;;;;;6.83;100.00;102598.22;5095773;28;20063;-55
2022/01/17 02:14:41;;;;;;;17.80;9.73;;;;;;;6.86;100.00;102598.19;5097252;28;20052;-55
2022/01/17 02:17:09;;;;;;;25.88;11.55;;;;;;;6.87;100.00;102610.47;5096567;28;20086;-55
2022/01/17 02:19:44;;;;;;;54.88;11.70;;;;;;;6.74;100.00;102606.25;5096078;28;20052;-55
2022/01/17 02:22:14;;;;;;;24.83;10.93;;;;;;;6.71;100.00;102604.53;5095747;28;20506;-55
2022/01/17 02:24:44;;;;;;;21.90;10.10;;;;;;;6.81;100.00;102602.66;5095722;28;20066;-55
2022/01/17 02:27:12;;;;;;;18.42;10.63;;;;;;;6.83;100.00;102600.88;5096183;28;20060;-55
2022/01/17 02:29:40;;;;;;;36.03;10.25;;;;;;;6.83;100.00;102601.72;5096128;28;20052;-55
2022/01/17 02:32:08;;;;;;;23.23;10.30;;;;;;;6.83;100.00;102609.63;5095770;28;20138;-55
2022/01/17 02:34:41;;;;;;;22.08;10.70;;;;;;;6.92;100.00;102608.63;5095490;28;20499;-55
2022/01/17 02:37:09;;;;;;;24.48;10.40;;;;;;;6.94;100.00;102604.22;5096834;28;20067;-55
2022/01/17 02:39:39;;;;;;;51.35;11.18;;;;;;;6.92;100.00;102608.63;5095954;28;20059;-55
2022/01/17 02:42:10;;;;;;;21.67;9.95;;;;;;;6.86;100.00;102598.19;5095284;28;20056;-55
2022/01/17 02:44:44;;;;;;;20.05;9.35;;;;;;;6.76;100.00;102602.72;5095988;28;20070;-55
2022/01/17 02:47:16;;;;;;;22.23;9.80;;;;;;;6.70;100.00;102611.53;5096029;28;20067;-55
2022/01/17 02:49:45;;;;;;;29.38;10.07;;;;;;;6.75;100.00;102610.63;5096109;28;20048;-55
2022/01/17 02:52:13;;;;;;;37.67;11.32;;;;;;;6.75;100.00;102606.22;5096269;28;20056;-55
2022/01/17 02:54:42;;;;;;;20.42;9.43;;;;;;;6.78;100.00;102600.06;5096227;28;20059;-55
2022/01/17 02:57:11;;;;;;;38.47;11.10;;;;;;;6.86;100.00;102606.09;5095548;28;20495;-55
2022/01/17 02:59:39;;;;;;;25.83;10.10;;;;;;;6.87;100.00;102610.47;5096099;28;20393;-55
2022/01/17 03:02:07;;;;;;;17.33;10.18;;;;;;;6.86;100.00;102608.75;5095549;28;20059;-55
2022/01/17 03:04:36;;;;;;;19.58;9.73;;;;;;;6.89;100.00;102603.41;5095594;28;20056;-55
2022/01/17 03:07:04;;;;;;;21.77;9.85;;;;;;;6.96;100.00;102612.09;5095447;28;20056;-55
2022/01/17 03:09:42;;;;;;;15.27;9.35;;;;;;;6.91;100.00;102612.19;5095627;28;20048;-55
2022/01/17 03:12:13;;;;;;;34.03;11.30;;;;;;;6.88;100.00;102617.50;5096235;28;20052;-55
2022/01/17 03:14:42;;;;;;;23.42;8.98;;;;;;;6.84;100.00;102616.69;5094723;28;20056;-55
2022/01/17 03:17:10;;;;;;;24.35;10.10;;;;;;;6.84;100.00;102621.06;5094848;28;20071;-55
2022/01/17 03:19:38;;;;;;;21.17;11.30;;;;;;;6.91;100.00;102622.75;5094879;28;20565;-55
2022/01/17 03:22:06;;;;;;;42.42;10.80;;;;;;;6.88;100.00;102623.63;5095214;28;20396;-55
2022/01/17 03:24:34;;;;;;;18.85;10.35;;;;;;;6.89;100.00;102624.50;5093742;28;20060;-55
2022/01/17 03:27:03;;;;;;;18.70;10.57;;;;;;;6.91;100.00;102622.75;5095110;28;20143;-55
2022/01/17 03:29:33;;;;;;;21.17;10.00;;;;;;;6.94;100.00;102616.53;5095040;28;20048;-55
2022/01/17 03:32:01;;;;;;;24.58;10.32;;;;;;;6.94;100.00;102621.81;5094741;28;20056;-55
2022/01/17 03:34:29;;;;;;;23.80;11.23;;;;;;;6.92;100.00;102624.47;5095621;28;20056;-55
2022/01/17 03:36:57;;;;;;;20.92;10.50;;;;;;;6.92;100.00;102624.47;5094858;28;20056;-55
2022/01/17 03:39:26;;;;;;;17.05;9.18;;;;;;;6.92;100.00;102628.88;5095174;28;20051;-55
2022/01/17 03:41:54;;;;;;;17.73;9.68;;;;;;;6.89;100.00;102624.50;5094862;28;20060;-55
2022/01/17 03:44:22;;;;;;;18.25;8.88;;;;;;;6.82;100.00;102622.84;5094297;28;20063;-55
2022/01/17 03:46:52;;;;;;;17.38;9.48;;;;;;;6.71;100.00;102636.19;5095141;28;20078;-55
2022/01/17 03:49:20;;;;;;;19.92;8.40;;;;;;;6.61;100.00;102635.41;5094462;28;20055;-55
2022/01/17 03:51:48;;;;;;;16.23;8.20;;;;;;;6.62;100.00;102638.91;5094708;28;20059;-54
2022/01/17 03:54:16;;;;;;;17.63;9.32;;;;;;;6.55;100.00;102632.84;5094912;28;20070;-55
2022/01/17 03:56:45;;;;;;;18.20;9.15;;;;;;;6.47;100.00;102639.94;5094797;28;20052;-54
2022/01/17 03:59:13;;;;;;;14.30;8.80;;;;;;;6.41;100.00;102642.69;5094318;28;20063;-54
2022/01/17 04:01:41;;;;;;;17.85;8.77;;;;;;;6.28;100.00;102648.06;5094563;28;20082;-55
2022/01/17 04:04:11;;;;;;;18.67;9.63;;;;;;;6.11;100.00;102650.84;5094501;28;20052;-55
2022/01/17 04:06:40;;;;;;;17.33;8.30;;;;;;;6.06;100.00;102641.25;5094195;28;20071;-54
2022/01/17 04:09:08;;;;;;;15.43;8.40;;;;;;;6.05;100.00;102644.78;5094506;28;20051;-55
2022/01/17 04:11:37;;;;;;;15.15;8.52;;;;;;;6.03;100.00;102646.56;5094178;28;20056;-55
2022/01/17 04:14:06;;;;;;;17.20;9.30;;;;;;;6.05;100.00;102645.66;5094124;28;20052;-55
2022/01/17 04:16:34;;;;;;;19.88;8.98;;;;;;;5.85;100.00;102640.53;5095860;28;20056;-55
2022/01/17 04:19:03;;;;;;;18.35;8.90;;;;;;;5.71;100.00;102637.13;5094074;28;20473;-55
2022/01/17 04:21:35;;;;;;;15.73;8.38;;;;;;;5.56;100.00;102646.91;5094933;28;20418;-55
2022/01/17 04:24:04;;;;;;;21.48;9.70;;;;;;;5.44;100.00;102639.06;5094682;28;20056;-55
2022/01/17 04:26:32;;;;;;;17.92;9.20;;;;;;;5.44;100.00;102644.34;5093993;28;20059;-55
2022/01/17 04:29:00;;;;;;;20.00;9.48;;;;;;;5.44;100.00;102644.34;5094284;28;20052;-55
2022/01/17 04:31:28;;;;;;;18.63;9.07;;;;;;;5.41;100.00;102644.34;5095103;28;20063;-55
2022/01/17 04:33:56;;;;;;;18.77;10.02;;;;;;;5.39;100.00;102641.72;5094387;28;20047;-55
2022/01/17 04:36:25;;;;;;;19.75;9.68;;;;;;;5.43;100.00;102642.59;5096466;28;20060;-55
2022/01/17 04:38:55;;;;;;;19.48;9.43;;;;;;;5.50;100.00;102651.34;5097826;28;20056;-55
2022/01/17 04:41:34;;;;;;;21.52;11.02;;;;;;;5.63;100.00;102646.84;5099120;28;20407;-55
2022/01/17 04:45:07;;;;;;;30.27;11.05;;;;;;;5.76;100.00;102643.22;5097953;28;20142;-55
2022/01/17 04:46:52;;;;;;;42.95;11.55;;;;;;;5.87;100.00;102649.28;5078002;28;20060;-55
2022/01/17 04:49:20;;;;;;;45.38;11.50;;;;;;;5.91;100.00;102645.72;5078052;28;20067;-55
2022/01/17 04:51:53;;;;;;;78.82;11.50;;;;;;;5.96;100.00;102640.47;5077704;28;20052;-55
2022/01/17 04:54:39;;;;;;;74.65;11.18;;;;;;;5.97;100.00;102646.59;5077200;28;20056;-55
2022/01/17 04:57:08;;;;;;;23.23;9.75;;;;;;;5.93;100.00;102641.34;5077005;28;20063;-55
2022/01/17 04:59:36;;;;;;;20.17;9.10;;;;;;;6.01;100.00;102648.34;5078306;28;20393;-55
2022/01/17 05:02:05;;;;;;;61.00;11.35;;;;;;;6.03;100.00;102646.56;5077597;28;20052;-55
2022/01/17 05:04:33;;;;;;;169.20;12.85;;;;;;;5.96;100.00;102629.94;5078390;28;20060;-55
2022/01/17 05:07:01;;;;;;;55.90;9.38;;;;;;;5.95;100.00;102639.56;5077625;28;20060;-55
2022/01/17 05:09:31;;;;;;;56.97;9.43;;;;;;;5.92;100.00;102644.84;5077091;28;20071;-55
2022/01/17 05:12:00;;;;;;;78.15;9.80;;;;;;;5.94;100.00;102637.81;5077932;28;20060;-55
2022/01/17 05:14:28;;;;;;;15.48;8.70;;;;;;;5.90;100.00;102636.09;5077647;28;20056;-55
2022/01/17 05:17:03;;;;;;;41.42;9.20;;;;;;;5.92;100.00;102639.59;5076927;28;20056;-55
2022/01/17 05:19:53;;;;;;;19.90;9.05;;;;;;;5.86;100.00;102636.13;5077538;28;20057;-55
2022/01/17 05:22:22;;;;;;;33.97;10.10;;;;;;;5.81;100.00;102630.91;5077825;28;20060;-55
2022/01/17 05:24:52;;;;;;;28.58;9.05;;;;;;;5.73;100.00;102633.59;5077382;28;20061;-55
2022/01/17 05:27:20;;;;;;;89.85;11.43;;;;;;;5.72;100.00;102641.53;5076806;28;20056;-55
2022/01/17 05:29:49;;;;;;;21.08;9.32;;;;;;;5.68;100.00;102639.78;5077418;28;20068;-55
2022/01/17 05:32:17;;;;;;;33.22;9.55;;;;;;;5.76;100.00;102643.22;5077491;28;20057;-55
2022/01/17 05:34:46;;;;;;;22.20;8.90;;;;;;;5.70;100.00;102641.53;5077872;28;20450;-55
2022/01/17 05:37:15;;;;;;;51.22;9.98;;;;;;;5.65;100.00;102639.78;5076633;28;20053;-55
2022/01/17 05:39:44;;;;;;;48.13;8.95;;;;;;;5.69;100.00;102636.28;5076512;28;20511;-55
2022/01/17 05:42:17;;;;;;;82.90;11.48;;;;;;;5.64;100.00;102638.06;5076849;28;20071;-55
2022/01/17 05:44:47;;;;;;;29.98;8.85;;;;;;;5.56;100.00;102631.09;5079014;28;20064;-55
2022/01/17 05:47:15;;;;;;;35.72;9.20;;;;;;;5.57;100.00;102638.09;5096764;28;20504;-55
2022/01/17 05:49:44;;;;;;;91.75;9.63;;;;;;;5.48;100.00;102640.81;5096616;28;20056;-55
2022/01/17 05:52:13;;;;;;;78.35;11.30;;;;;;;5.36;100.00;102643.50;5097471;28;20052;-55
2022/01/17 05:54:42;;;;;;;20.25;8.43;;;;;;;5.37;100.00;102640.00;5096333;28;20052;-55
2022/01/17 05:57:10;;;;;;;46.90;9.25;;;;;;;5.35;100.00;102652.31;5096484;28;20507;-55
2022/01/17 05:59:40;;;;;;;37.47;9.52;;;;;;;5.37;100.00;102651.41;5096664;28;20086;-55
2022/01/17 06:02:08;;;;;;;36.38;10.25;;;;;;;5.21;100.00;102633.94;5096663;28;20063;-55
2022/01/17 06:04:37;;;;;;;105.28;11.77;;;;;;;5.39;100.00;102659.28;5097154;28;20056;-55
2022/01/17 06:07:05;;;;;;;36.67;10.90;;;;;;;5.36;100.00;102659.28;5097454;28;20062;-55
2022/01/17 06:09:34;;;;;;;17.77;8.50;;;;;;;5.34;100.00;102655.81;5096859;28;20056;-55
2022/01/17 06:12:04;;;;;;;41.53;9.23;;;;;;;5.32;100.00;102657.59;5097327;28;20052;-55
2022/01/17 06:14:32;;;;;;;24.38;8.63;;;;;;;5.39;100.00;102660.16;5095847;28;20052;-55
2022/01/17 06:17:01;;;;;;;16.30;8.40;;;;;;;5.42;100.00;102664.53;5097164;28;20056;-55
2022/01/17 06:19:30;;;;;;;17.90;8.63;;;;;;;5.42;100.00;102666.31;5095899;28;20055;-55
2022/01/17 06:21:58;;;;;;;16.00;8.40;;;;;;;5.36;100.00;102664.56;5096245;28;20063;-55
2022/01/17 06:24:26;;;;;;;50.38;9.88;;;;;;;5.38;100.00;102668.94;5096365;28;20063;-55
2022/01/17 06:26:54;;;;;;;17.35;9.02;;;;;;;5.37;100.00;102676.84;5096218;28;20407;-55
2022/01/17 06:29:23;;;;;;;27.92;9.88;;;;;;;5.44;100.00;102675.91;5096658;28;20074;-55
2022/01/17 06:31:51;;;;;;;31.33;10.85;;;;;;;5.22;100.00;102652.34;5096416;28;20415;-55
2022/01/17 06:34:22;;;;;;;20.48;8.90;;;;;;;5.29;100.00;102673.38;5096816;28;20052;-55
2022/01/17 06:36:50;;;;;;;27.45;10.38;;;;;;;5.26;100.00;102673.41;5095320;28;20059;-55
2022/01/17 06:39:18;;;;;;;24.50;9.70;;;;;;;5.26;100.00;102669.03;5096308;28;20063;-55
2022/01/17 06:41:46;;;;;;;25.10;9.43;;;;;;;5.29;100.00;102673.38;5095801;28;20063;-55
2022/01/17 06:44:14;;;;;;;19.13;10.02;;;;;;;5.22;100.00;102683.94;5096314;28;20498;-55
2022/01/17 06:46:43;;;;;;;17.48;9.43;;;;;;;5.19;100.00;102677.81;5096959;28;20064;-55
2022/01/17 06:49:11;;;;;;;19.83;10.60;;;;;;;5.16;100.00;102676.09;5095399;28;20515;-56
2022/01/17 06:51:41;;;;;;;17.17;10.70;;;;;;;5.20;100.00;102683.06;5095773;28;20056;-55
2022/01/17 06:54:09;;;;;;;27.17;11.20;;;;;;;5.20;100.00;102676.94;5095105;28;20055;-56
2022/01/17 06:56:43;;;;;;;22.00;10.75;;;;;;;5.21;100.00;102687.47;5095480;28;20085;-56
2022/01/17 06:59:12;;;;;;;19.85;9.70;;;;;;;5.19;100.00;102678.72;5095490;28;20056;-55
2022/01/17 07:01:41;;;;;;;21.77;10.82;;;;;;;5.16;100.00;102686.63;5095621;28;20082;-55
2022/01/17 07:04:11;;;;;;;17.10;10.73;;;;;;;5.15;100.00;102692.75;5095592;28;20419;-55
2022/01/17 07:06:41;;;;;;;26.88;10.68;;;;;;;5.14;100.00;102684.84;5095367;28;20407;-55
2022/01/17 07:09:12;;;;;;;18.75;10.30;;;;;;;5.08;100.00;102704.19;5095412;28;20055;-55
2022/01/17 07:11:40;;;;;;;24.13;11.68;;;;;;;5.05;100.00;102722.59;5095851;28;20134;-56
2022/01/17 07:14:10;;;;;;;20.50;11.13;;;;;;;5.03;100.00;102716.50;5095615;28;20056;-55
2022/01/17 07:16:39;;;;;;;17.73;10.70;;;;;;;4.97;100.00;102735.78;5094943;28;20055;-56
2022/01/17 07:19:08;;;;;;;16.65;9.98;;;;;;;4.95;100.00;102762.97;5094814;28;20070;-55
2022/01/17 07:21:36;;;;;;;43.97;11.63;;;;;;;4.99;100.00;102770.88;5094755;28;20507;-56
2022/01/17 07:24:06;;;;;;;27.55;10.80;;;;;;;4.97;100.00;102764.72;5095143;28;20058;-56
2022/01/17 07:26:36;;;;;;;25.92;10.95;;;;;;;4.94;100.00;102745.44;5095342;28;20130;-55
2022/01/17 07:29:08;;;;;;;33.50;11.93;;;;;;;4.98;100.00;102727.00;5094749;28;20419;-55
2022/01/17 07:31:36;;;;;;;21.33;11.27;;;;;;;5.08;100.00;102712.09;5094517;28;20235;-56
2022/01/17 07:34:06;;;;;;;31.52;12.18;;;;;;;5.12;100.00;102697.16;5094632;28;20518;-56
2022/01/17 07:36:34;;;;;;;26.35;12.13;;;;;;;5.06;100.00;102705.97;5094549;28;20070;-55
2022/01/17 07:39:02;;;;;;;24.65;12.38;;;;;;;4.96;100.00;102722.63;5095054;28;20056;-56
2022/01/17 07:41:32;;;;;;;23.05;11.23;;;;;;;4.95;100.00;102729.66;5094477;28;20078;-56
2022/01/17 07:44:03;;;;;;;20.33;10.50;;;;;;;4.99;100.00;102722.63;5095354;28;20403;-56
2022/01/17 07:46:35;;;;;;;23.80;10.98;;;;;;;4.96;100.00;102723.53;5095134;28;20415;-56
2022/01/17 07:49:10;;;;;;;39.00;12.32;;;;;;;4.99;100.00;102725.25;5095280;28;20415;-56
2022/01/17 07:51:40;;;;;;;31.23;11.48;;;;;;;4.97;100.00;102734.91;5094152;28;20063;-56
2022/01/17 07:54:10;;;;;;;20.25;10.60;;;;;;;5.01;100.00;102736.66;5094337;28;20063;-56
2022/01/17 07:56:40;;;;;;;23.00;10.80;;;;;;;5.00;100.00;102750.69;5094605;28;20434;-56
2022/01/17 07:59:09;;;;;;;21.75;11.13;;;;;;;4.98;100.00;102734.03;5094371;28;20430;-56
2022/01/17 08:01:38;;;;;;;23.48;11.10;;;;;;;5.00;100.00;102727.00;5094501;28;20100;-56
2022/01/17 08:04:07;;;;;;;23.73;10.27;;;;;;;5.01;100.00;102734.91;5094550;28;20060;-56
2022/01/17 08:06:38;;;;;;;25.38;11.50;;;;;;;5.02;100.00;102738.41;5094144;28;20060;-56
2022/01/17 08:09:09;;;;;;;24.50;10.45;;;;;;;4.73;100.00;102705.19;5094243;28;20059;-56
2022/01/17 08:11:58;;;;;;;23.77;10.95;;;;;;;4.98;100.00;102736.66;5094144;28;20456;-56
2022/01/17 08:14:27;;;;;;;21.65;10.98;;;;;;;5.02;100.00;102748.91;5093889;28;20055;-56
2022/01/17 08:16:56;;;;;;;22.30;11.75;;;;;;;4.96;100.00;102748.94;5094089;28;20052;-56
2022/01/17 08:19:25;;;;;;;22.92;11.10;;;;;;;4.95;100.00;102747.19;5094326;28;20056;-56
2022/01/17 08:21:58;;;;;;;28.52;11.90;;;;;;;4.96;100.00;102749.81;5093817;28;20052;-56
2022/01/17 08:24:27;;;;;;;22.45;11.35;;;;;;;5.05;100.00;102743.66;5094215;28;20062;-56
2022/01/17 08:26:55;;;;;;;29.30;12.60;;;;;;;5.09;100.00;102739.25;5094002;28;20507;-56
2022/01/17 08:29:27;;;;;;;27.67;11.35;;;;;;;5.08;100.00;102727.88;5094082;28;20052;-56
2022/01/17 08:31:55;;;;;;;27.10;11.35;;;;;;;5.12;100.00;102721.69;5094428;28;20064;-56
2022/01/17 08:34:24;;;;;;;25.75;10.85;;;;;;;5.12;100.00;102719.06;5093740;28;20060;-56
2022/01/17 08:36:53;;;;;;;21.42;11.20;;;;;;;5.22;100.00;102731.28;5093922;28;20109;-56
2022/01/17 08:39:22;;;;;;;30.33;13.30;;;;;;;5.32;100.00;102731.28;5093759;28;20058;-56
2022/01/17 08:41:50;;;;;;;24.20;11.60;;;;;;;5.45;100.00;102727.69;5093883;28;20071;-56
2022/01/17 08:44:19;;;;;;;23.90;12.02;;;;;;;5.57;100.00;102724.97;5094262;28;20056;-56
2022/01/17 08:46:49;;;;;;;25.00;12.70;;;;;;;5.66;100.00;102731.94;5093370;28;20068;-56
2022/01/17 08:49:17;;;;;;;24.13;11.13;;;;;;;5.74;100.00;102739.81;5093803;28;20063;-56
2022/01/17 08:51:46;;;;;;;32.47;12.63;;;;;;;5.81;100.00;102738.88;5094151;28;20052;-56
2022/01/17 08:54:15;;;;;;;23.05;11.63;;;;;;;5.87;100.00;102741.47;5094112;28;20131;-56
2022/01/17 08:56:43;;;;;;;20.60;10.48;;;;;;;5.99;100.00;102750.22;5094371;28;20056;-56
2022/01/17 08:59:11;;;;;;;24.30;10.48;;;;;;;6.08;100.00;102760.69;5093718;28;20070;-56
2022/01/17 09:01:40;;;;;;;27.20;11.43;;;;;;;6.22;100.00;102758.84;5094346;28;20056;-56
2022/01/17 09:04:09;;;;;;;24.15;10.52;;;;;;;6.20;100.00;102760.59;5094106;28;20056;-56
2022/01/17 09:06:38;;;;;;;25.52;10.70;;;;;;;6.14;100.00;102753.59;5094280;28;20052;-56
2022/01/17 09:09:06;;;;;;;22.05;9.77;;;;;;;6.11;100.00;102755.41;5093953;28;20057;-56
2022/01/17 09:11:34;;;;;;;24.13;9.77;;;;;;;6.06;100.00;102762.47;5093954;28;20063;-56
2022/01/17 09:14:03;;;;;;;20.13;9.75;;;;;;;6.02;100.00;102766.00;5093964;28;20056;-56
2022/01/17 09:16:31;;;;;;;27.75;9.00;;;;;;;5.97;100.00;102768.69;5093913;28;20056;-56
2022/01/17 09:19:01;;;;;;;20.45;8.88;;;;;;;6.01;100.00;102770.41;5094661;28;20083;-56
2022/01/17 09:21:30;;;;;;;22.08;8.80;;;;;;;6.03;100.00;102767.75;5094592;28;20056;-56
2022/01/17 09:23:59;;;;;;;22.17;8.68;;;;;;;6.00;100.00;102787.09;5096816;28;20052;-56
2022/01/17 09:26:27;;;;;;;15.30;7.80;;;;;;;5.95;100.00;102781.81;5097637;28;20072;-56
2022/01/17 09:28:56;;;;;;;26.45;8.68;;;;;;;5.90;100.00;102794.16;5097295;28;20056;-56
2022/01/17 09:31:25;;;;;;;19.15;7.70;;;;;;;5.89;100.00;102791.53;5097332;28;20060;-56
2022/01/17 09:33:53;;;;;;;19.67;7.35;;;;;;;5.94;100.00;102798.50;5097206;28;20056;-56
2022/01/17 09:36:23;;;;;;;25.23;7.47;;;;;;;6.01;100.00;102795.88;5097507;28;20070;-56
2022/01/17 09:38:53;;;;;;;20.90;7.65;;;;;;;6.27;100.00;102799.22;5096619;28;20052;-56
2022/01/17 09:41:21;;;;;;;17.75;6.75;;;;;;;6.66;100.00;102807.66;5097822;28;20059;-56
2022/01/17 09:43:50;;;;;;;15.90;7.72;;;;;;;8.00;100.00;102807.84;5097646;28;20105;-56
2022/01/17 09:46:21;;;;;;;17.08;7.40;;;;;;;9.77;100.00;102809.06;5097273;28;20146;-56
2022/01/17 09:48:51;;;;;;;12.52;6.75;;;;;;;10.51;100.00;102815.31;5097761;28;20415;-56
2022/01/17 09:51:38;;;;;;;12.32;5.82;;;;;;;10.56;100.00;102819.59;5096591;28;20064;-56
2022/01/17 09:54:08;;;;;;;15.90;6.10;;;;;;;10.45;100.00;102832.25;5097715;28;20082;-56
2022/01/17 09:56:38;;;;;;;20.15;5.97;;;;;;;10.94;100.00;102835.41;5097071;28;20068;-56
2022/01/17 09:59:07;;;;;;;15.95;6.55;;;;;;;11.55;100.00;102845.25;5096769;28;20052;-56
2022/01/17 10:01:38;;;;;;;12.43;5.00;;;;;;;11.88;100.00;102841.63;5096655;28;20063;-56
2022/01/17 10:04:07;;;;;;;14.80;4.43;;;;;;;12.04;100.00;102835.84;5097285;28;20059;-56
2022/01/17 10:06:36;;;;;;;12.43;4.95;;;;;;;12.02;100.00;102832.34;5096573;28;20059;-56
2022/01/17 10:09:13;;;;;;;9.88;4.03;;;;;;;11.98;100.00;102826.25;5096302;28;20059;-56
2022/01/17 10:12:03;;;;;;;10.27;4.05;;;;;;;11.78;100.00;102815.34;5097378;28;20074;-56
2022/01/17 10:14:36;;;;;;;22.50;5.65;;;;;;;12.18;100.00;102817.66;5096264;28;20067;-55
2022/01/17 10:17:06;;;;;;;12.32;4.43;;;;;;;12.97;100.00;102823.84;5096917;28;20052;-56
2022/01/17 10:19:34;;;;;;;13.07;4.47;;;;;;;13.33;100.00;102831.50;5096382;28;20412;-56
2022/01/17 10:22:08;;;;;;;9.50;3.42;;;;;;;13.71;100.00;102842.50;5096300;28;20087;-56
2022/01/17 10:24:48;;;;;;;12.38;3.33;;;;;;;13.78;100.00;102866.28;5095735;28;20139;-56
2022/01/17 10:35:34;;;;;;;8.52;3.15;;;;;;;14.49;84.96;102883.91;5095546;28;20063;-55
2022/01/17 10:38:06;;;;;;;11.90;2.90;;;;;;;14.39;74.45;102887.88;5096019;28;20052;-55
2022/01/17 10:40:38;;;;;;;10.45;3.42;;;;;;;14.21;76.48;102888.63;5096809;28;20470;-55
2022/01/17 10:43:06;;;;;;;;;;;;;;;15.85;71.63;102883.38;5096703;28;20056;-55
2022/01/17 10:45:41;;;;;;;12.95;2.90;;;;;;;17.08;62.17;102892.56;5095825;28;19920;-56
2022/01/17 10:48:09;;;;;;;9.15;2.90;;;;;;;18.28;59.04;102887.88;5095588;28;20096;-56
2022/01/17 10:50:39;;;;;;;11.27;2.78;;;;;;;20.16;48.60;102879.16;5095470;28;20056;-56
2022/01/17 10:53:11;;;;;;;9.98;1.77;;;;;;;20.82;45.67;102873.91;5095076;28;20052;-56
2022/01/17 10:55:43;;;;;;;6.47;2.08;;;;;;;22.05;41.14;102873.28;5095192;28;20056;-56
2022/01/17 10:58:11;;;;;;;;;;;;;;;-145.00;63.02;102873.28;5095575;28;20052;-56
2022/01/17 11:00:42;;;;;;;8.60;2.00;;;;;;;24.66;37.45;102868.03;5095476;28;19926;-56
2022/01/17 11:03:12;;;;;;;8.93;1.92;;;;;;;25.77;34.20;102871.94;5096421;28;20059;-56
2022/01/17 11:05:42;;;;;;;9.07;2.10;;;;;;;26.59;32.33;102853.56;5096009;28;20060;-56
2022/01/17 11:08:12;;;;;;;9.25;2.30;;;;;;;26.93;30.60;102844.09;5095917;28;20052;-57
2022/01/17 11:10:43;;;;;;;8.43;2.28;;;;;;;28.15;29.16;102857.59;5095261;28;20056;-54
2022/01/17 11:13:14;;;;;;;8.85;2.08;;;;;;;28.15;29.16;102857.59;5095092;28;20052;-54
2022/01/17 11:15:45;;;;;;;8.63;1.67;;;;;;;28.54;26.57;102841.75;5095426;28;20085;-54
2022/01/17 11:18:19;;;;;;;9.90;2.17;;;;;;;26.76;28.84;102832.09;5096094;28;20055;-54
2022/01/17 11:20:49;;;;;;;11.48;2.30;;;;;;;26.76;28.84;102832.09;5095940;28;20056;-54
2022/01/17 11:23:20;;;;;;;6.82;2.13;;;;;;;24.16;32.29;102826.16;5095441;28;20098;-54
2022/01/17 11:25:54;;;;;;;14.27;2.22;;;;;;;24.15;32.42;102824.44;5094476;28;20060;-54
2022/01/17 11:28:25;;;;;;;6.88;2.00;;;;;;;25.03;33.17;102820.53;5095371;28;20055;-54
2022/01/17 11:30:55;;;;;;;10.10;2.40;;;;;;;26.52;30.20;102819.78;5094530;28;20056;-54
2022/01/17 11:33:24;;;;;;;8.00;2.00;;;;;;;-145.00;100.00;60578.66;5095463;28;20497;-54
2022/01/17 11:35:52;;;;;;;9.07;2.20;;;;;;;26.52;30.20;102819.78;5095560;28;20052;-55
2022/01/17 11:38:28;;;;;;;9.55;1.95;;;;;;;26.52;28.49;76642.59;5094680;28;20056;-56
2022/01/17 11:40:59;;;;;;;10.10;1.88;;;;;;;30.67;22.38;102786.13;5094321;28;20056;-56